Springfield, Colorado
Current Conditions -  °F | °C
As of 10:53 AM on Sunday 25 Jan 2015 (Local Time) from KLAA Reporting Station
Clear Clear  
Wind Chill: 40°   Ceiling: Unl
Heat Index: 46°   Visibility: 10mi
Dew Point: 32°   Wind: 15mph
Humidity: 58%   Direction: 270°W
Pressure: 30.19"   Gusts: NA
Location:  37.41°N, 102.61°W
Report Text: KLAA 251753Z AUTO 27013KT 10SM CLR 08/00 A3019 RMK AO2 SLP216 T00780000 10078 21006 51006
Loading
Personal Weather Stations






























Interactive Weather Map New forecast layout! Learn more

10-Day Weather Forecast

Advertisements
Track Severe Weather on mobile